Time;durP1;ratioP1;P1;durP2;ratioP2;P2;SDS_P1;SDS_P2;PMS_P1;PMS_P2;Temp;Humidity;BMP_temperature;BMP_pressure;BME280_temperature;BME280_humidity;BME280_pressure;Samples;Min_cycle;Max_cycle;Signal;HPM_P1;HPM_P2
2021/12/26 00:01:48;;;;;;;14.07;10.70;;;;;;;-1.99;65.69;101128.91;5078873;28;20533;-66
2021/12/26 00:04:15;;;;;;;11.77;9.73;;;;;;;-2.26;65.90;101122.06;5078681;28;20859;-66
2021/12/26 00:06:41;;;;;;;10.77;8.60;;;;;;;-2.19;67.56;101123.34;5078717;28;20260;-66
2021/12/26 00:09:07;;;;;;;13.30;8.90;;;;;;;-2.25;67.73;101121.25;5079413;28;20798;-66
2021/12/26 00:11:32;;;;;;;12.30;9.20;;;;;;;-2.42;68.07;101120.13;5078757;28;20450;-66
2021/12/26 00:13:58;;;;;;;11.43;8.60;;;;;;;-2.30;68.26;101122.63;5078501;28;20201;-66
2021/12/26 00:16:24;;;;;;;12.40;9.10;;;;;;;-2.14;67.39;101113.44;5078906;28;20172;-67
2021/12/26 00:18:49;;;;;;;10.50;8.47;;;;;;;-2.55;67.75;101107.31;5078716;28;20173;-66
2021/12/26 00:21:17;;;;;;;9.90;8.90;;;;;;;-2.70;68.97;101122.44;5078387;28;20519;-66
2021/12/26 00:23:43;;;;;;;11.93;9.10;;;;;;;-2.54;68.64;101109.97;5078677;28;20168;-68
2021/12/26 00:26:08;;;;;;;11.87;8.53;;;;;;;-2.60;69.05;101112.09;5078492;28;20510;-67
2021/12/26 00:28:34;;;;;;;9.33;8.27;;;;;;;-3.06;68.75;101107.25;5077875;28;20489;-66
2021/12/26 00:31:00;;;;;;;11.37;9.07;;;;;;;-2.76;69.07;101107.59;5078705;28;20161;-65
2021/12/26 00:33:25;;;;;;;16.53;10.53;;;;;;;-2.54;69.36;101098.88;5078138;28;20222;-66
2021/12/26 00:35:51;;;;;;;12.20;10.03;;;;;;;-2.92;70.96;101102.22;5078169;28;20173;-66
2021/12/26 00:38:17;;;;;;;16.60;10.90;;;;;;;-2.83;70.23;101100.28;5078812;28;20488;-66
2021/12/26 00:40:42;;;;;;;13.23;10.83;;;;;;;-2.67;69.47;101094.59;5078097;28;20201;-67
2021/12/26 00:43:07;;;;;;;14.93;11.10;;;;;;;-3.03;70.34;101093.81;5078054;28;20179;-66
2021/12/26 00:45:33;;;;;;;15.00;11.10;;;;;;;-2.81;70.67;101093.63;5078096;28;20165;-66
2021/12/26 00:47:58;;;;;;;13.00;11.20;;;;;;;-2.91;70.89;101099.78;5078271;28;20172;-66
2021/12/26 00:50:29;;;;;;;14.83;10.47;;;;;;;-2.90;69.84;101104.06;5077987;28;20226;-67
2021/12/26 00:52:55;;;;;;;15.70;11.20;;;;;;;-2.93;69.21;101098.78;5077249;28;20575;-65
2021/12/26 00:55:20;;;;;;;16.20;10.77;;;;;;;-2.90;69.37;101100.66;5077324;28;20463;-66
2021/12/26 00:57:46;;;;;;;12.77;10.03;;;;;;;-3.27;69.42;101105.72;5078405;28;20527;-66
2021/12/26 01:00:28;;;;;;;14.93;9.80;;;;;;;-3.61;68.10;101109.28;5077998;28;20476;-66
2021/12/26 01:02:54;;;;;;;10.77;8.80;;;;;;;-3.41;68.96;101102.16;5077274;28;20406;-66
2021/12/26 01:05:20;;;;;;;14.57;9.13;;;;;;;-3.30;68.56;101113.13;5077988;28;20421;-65
2021/12/26 01:10:11;;;;;;;11.00;9.00;;;;;;;-3.43;67.91;101107.16;5082614;28;20633;-65
2021/12/26 01:12:38;;;;;;;9.93;8.90;;;;;;;-3.23;67.84;101113.69;5083087;28;20495;-66
2021/12/26 01:15:08;;;;;;;12.90;10.63;;;;;;;-3.17;68.59;101115.78;5082701;28;20176;-65
2021/12/26 01:17:34;;;;;;;14.20;10.70;;;;;;;-3.26;69.40;101118.59;5082910;28;20410;-66
2021/12/26 01:20:02;;;;;;;13.80;11.07;;;;;;;-3.27;70.17;101116.81;5081628;28;20455;-65
2021/12/26 01:22:28;;;;;;;16.93;12.77;;;;;;;-3.66;71.25;101127.56;5081927;28;20473;-67
2021/12/26 01:24:55;;;;;;;18.10;12.03;;;;;;;-3.97;72.62;101131.28;5082205;28;20649;-65
2021/12/26 01:27:24;;;;;;;15.17;12.23;;;;;;;-3.78;72.19;101128.41;5084835;28;20219;-67
2021/12/26 01:29:49;;;;;;;12.90;10.63;;;;;;;-3.91;72.22;101135.94;5082931;28;20426;-66
2021/12/26 01:32:15;;;;;;;17.00;11.50;;;;;;;-3.87;71.58;101120.09;5084066;28;20411;-67
2021/12/26 01:34:40;;;;;;;14.23;11.00;;;;;;;-3.91;72.51;101123.19;5083437;28;20220;-66
2021/12/26 01:37:05;;;;;;;14.37;10.23;;;;;;;-3.94;71.78;101120.44;5082889;28;20543;-66
2021/12/26 01:39:31;;;;;;;13.77;10.47;;;;;;;-4.08;72.07;101119.41;5082626;28;20157;-67
2021/12/26 01:42:01;;;;;;;15.13;10.17;;;;;;;-3.92;71.11;101127.41;5081613;28;20577;-65
2021/12/26 01:44:27;;;;;;;15.67;9.90;;;;;;;-4.07;71.53;101127.16;5081242;28;20161;-65
2021/12/26 01:46:52;;;;;;;11.90;9.87;;;;;;;-4.11;70.90;101127.72;5081768;28;20670;-65
2021/12/26 01:49:20;;;;;;;12.30;10.90;;;;;;;-4.38;72.54;101123.06;5081220;28;20183;-66
2021/12/26 01:51:48;;;;;;;13.83;10.27;;;;;;;-4.30;72.07;101128.00;5080958;28;20624;-66
2021/12/26 01:54:19;;;;;;;14.23;9.63;;;;;;;-4.22;72.34;101120.94;5081490;28;20773;-66
2021/12/26 01:56:44;;;;;;;13.37;10.70;;;;;;;-4.19;72.23;101126.25;5081101;28;20830;-66
2021/12/26 01:59:12;;;;;;;17.10;11.03;;;;;;;-4.52;72.26;101128.00;5081303;28;20502;-66
2021/12/26 02:01:37;;;;;;;14.10;9.70;;;;;;;-4.37;72.35;101122.31;5088950;28;20267;-65
2021/12/26 02:04:03;;;;;;;15.90;11.63;;;;;;;-4.27;71.85;101117.16;5083182;28;20454;-65
2021/12/26 02:06:29;;;;;;;12.23;10.50;;;;;;;-4.42;71.41;101117.75;5081974;28;20176;-66
2021/12/26 02:08:55;;;;;;;12.20;10.07;;;;;;;-4.61;71.74;101119.69;5081324;28;20411;-65
2021/12/26 02:11:21;;;;;;;12.10;9.77;;;;;;;-4.72;71.53;101111.22;5080735;28;20165;-65
2021/12/26 02:13:46;;;;;;;14.73;9.43;;;;;;;-4.60;71.48;101109.63;5080669;28;20434;-66
2021/12/26 02:16:12;;;;;;;10.47;9.40;;;;;;;-4.37;71.20;101115.59;5081278;28;20192;-65
2021/12/26 02:18:38;;;;;;;15.80;9.33;;;;;;;-4.29;71.36;101113.59;5079356;28;20180;-65
2021/12/26 02:28:58;;;;;;;20.30;9.80;;;;;;;-4.29;69.00;101117.03;5080482;28;20766;-65
2021/12/26 02:31:24;;;;;;;13.40;7.90;;;;;;;-4.58;69.20;101120.78;5080534;28;20415;-65
2021/12/26 02:33:49;;;;;;;12.90;8.77;;;;;;;-4.45;69.46;101119.16;5080198;28;20441;-65
2021/12/26 02:36:16;;;;;;;10.33;8.60;;;;;;;-4.34;70.53;101117.44;5081061;28;20184;-65
2021/12/26 02:38:41;;;;;;;11.63;7.97;;;;;;;-4.19;69.54;101116.06;5080249;28;20196;-65
2021/12/26 02:41:06;;;;;;;10.97;9.27;;;;;;;-4.31;69.50;101113.47;5080054;28;20892;-66
2021/12/26 02:43:33;;;;;;;11.87;8.73;;;;;;;-4.31;70.34;101123.66;5080341;28;20455;-65
2021/12/26 02:46:04;;;;;;;12.40;10.43;;;;;;;-4.68;70.77;101118.34;5080153;28;20398;-66
2021/12/26 02:48:29;;;;;;;12.57;9.87;;;;;;;-4.43;70.73;101110.88;5080008;28;20508;-65
2021/12/26 02:50:57;;;;;;;18.90;11.13;;;;;;;-4.55;71.01;101109.09;5080492;28;20438;-65
2021/12/26 02:53:23;;;;;;;15.07;11.23;;;;;;;-4.27;71.12;101109.53;5079589;28;20221;-65
2021/12/26 02:55:50;;;;;;;13.70;10.30;;;;;;;-4.54;71.38;101110.88;5079597;28;20479;-65
2021/12/26 02:58:16;;;;;;;13.80;10.90;;;;;;;-4.37;70.88;101110.50;5080441;28;20415;-66
2021/12/26 03:00:45;;;;;;;11.80;9.77;;;;;;;-4.59;71.78;101110.50;5079513;28;20700;-65
2021/12/26 03:03:11;;;;;;;11.77;8.27;;;;;;;-4.78;71.59;101106.53;5078717;28;20262;-66
2021/12/26 03:05:39;;;;;;;9.17;7.90;;;;;;;-4.69;70.98;101110.59;5079817;28;20469;-66
2021/12/26 03:08:07;;;;;;;13.17;8.83;;;;;;;-4.66;71.00;101110.81;5079690;28;20511;-65
2021/12/26 03:10:33;;;;;;;11.53;9.63;;;;;;;-4.64;70.88;101109.25;5078850;28;20407;-66
2021/12/26 03:13:01;;;;;;;10.37;8.20;;;;;;;-4.80;71.48;101102.13;5080048;28;20449;-65
2021/12/26 03:15:27;;;;;;;10.23;9.10;;;;;;;-4.66;71.44;101101.50;5079463;28;20443;-65
2021/12/26 03:17:53;;;;;;;14.90;9.93;;;;;;;-4.58;71.57;101105.53;5079532;28;20449;-66
2021/12/26 03:20:22;;;;;;;12.73;9.30;;;;;;;-4.82;72.06;101099.44;5079980;28;20697;-66
2021/12/26 03:22:47;;;;;;;12.00;9.70;;;;;;;-4.86;72.71;101097.44;5079247;28;20213;-66
2021/12/26 03:25:16;;;;;;;12.27;10.40;;;;;;;-4.73;72.65;101099.28;5079196;28;20407;-66
2021/12/26 03:27:41;;;;;;;13.23;10.70;;;;;;;-4.96;73.17;101103.47;5079998;28;20165;-66
2021/12/26 03:30:08;;;;;;;12.17;10.90;;;;;;;-4.86;73.69;101110.16;5078991;28;20413;-65
2021/12/26 03:32:33;;;;;;;16.67;11.47;;;;;;;-4.98;73.57;101102.47;5079017;28;20192;-65
2021/12/26 03:34:59;;;;;;;13.20;11.33;;;;;;;-4.80;72.59;101097.91;5079185;28;20411;-65
2021/12/26 03:37:24;;;;;;;19.93;13.30;;;;;;;-4.73;73.15;101094.19;5079507;28;20205;-65
2021/12/26 03:39:49;;;;;;;14.60;11.97;;;;;;;-4.63;73.15;101095.78;5078934;28;20209;-66
2021/12/26 03:42:15;;;;;;;14.50;13.00;;;;;;;-5.03;74.85;101097.78;5079034;28;20180;-65
2021/12/26 03:44:40;;;;;;;17.10;12.53;;;;;;;-4.97;74.20;101103.34;5078896;28;20172;-65
2021/12/26 03:47:06;;;;;;;19.23;14.07;;;;;;;-5.05;74.51;101095.13;5079052;28;20218;-65
2021/12/26 03:49:31;;;;;;;18.03;13.77;;;;;;;-4.85;74.45;101096.66;5079389;28;20427;-65
2021/12/26 03:51:56;;;;;;;20.73;14.10;;;;;;;-5.12;74.56;101096.28;5078445;28;20298;-66
2021/12/26 03:54:22;;;;;;;17.97;12.93;;;;;;;-4.99;73.87;101099.78;5078615;28;20188;-66
2021/12/26 03:56:47;;;;;;;22.40;14.07;;;;;;;-5.06;75.02;101098.41;5078635;28;20257;-66
2021/12/26 03:59:12;;;;;;;16.80;13.43;;;;;;;-5.26;74.48;101096.88;5078798;28;20181;-65
2021/12/26 04:01:38;;;;;;;16.77;12.33;;;;;;;-4.99;74.16;101095.59;5078597;28;20239;-65
2021/12/26 04:04:03;;;;;;;17.03;12.73;;;;;;;-4.93;74.44;101093.53;5078201;28;20541;-66
2021/12/26 04:06:29;;;;;;;12.63;11.07;;;;;;;-5.19;75.54;101091.50;5078569;28;20246;-65
2021/12/26 04:08:54;;;;;;;15.03;11.03;;;;;;;-5.08;74.34;101095.75;5078652;28;20181;-66
2021/12/26 04:11:20;;;;;;;20.63;12.03;;;;;;;-5.02;73.32;101092.84;5079030;28;20172;-65
2021/12/26 04:13:45;;;;;;;12.47;10.80;;;;;;;-5.08;73.86;101090.69;5077676;28;20260;-66
2021/12/26 04:16:11;;;;;;;15.33;11.50;;;;;;;-5.19;74.43;101093.19;5078515;28;20168;-66
2021/12/26 04:18:36;;;;;;;15.13;10.93;;;;;;;-5.13;74.38;101088.56;5079228;28;20177;-65
2021/12/26 04:21:02;;;;;;;12.03;10.13;;;;;;;-5.04;74.32;101088.41;5078429;28;20200;-65
2021/12/26 04:23:27;;;;;;;15.70;11.30;;;;;;;-5.20;74.40;101089.72;5078322;28;20196;-66
2021/12/26 04:25:52;;;;;;;15.10;10.83;;;;;;;-5.03;73.86;101082.53;5079118;28;20812;-66
2021/12/26 04:28:19;;;;;;;18.53;11.47;;;;;;;-5.27;75.09;101084.94;5078672;28;20181;-65
2021/12/26 04:30:45;;;;;;;14.40;11.30;;;;;;;-4.95;74.27;101081.47;5078392;28;20179;-65
2021/12/26 04:33:10;;;;;;;17.07;12.50;;;;;;;-5.17;74.40;101084.88;5078778;28;20501;-66
2021/12/26 04:35:36;;;;;;;15.37;11.77;;;;;;;-5.10;74.20;101087.16;5078578;28;20440;-65
2021/12/26 04:38:02;;;;;;;19.83;12.63;;;;;;;-5.13;74.50;101092.00;5078544;28;20179;-65
2021/12/26 04:40:27;;;;;;;14.23;11.73;;;;;;;-5.01;74.54;101086.09;5078146;28;20211;-67
2021/12/26 04:42:53;;;;;;;16.97;10.63;;;;;;;-5.03;74.07;101093.59;5080771;28;20442;-66
2021/12/26 04:45:18;;;;;;;14.70;11.67;;;;;;;-4.61;74.06;101090.03;5082393;28;20169;-66
2021/12/26 04:47:44;;;;;;;17.87;10.67;;;;;;;-5.04;73.86;101093.47;5082772;28;20200;-65
2021/12/26 04:50:13;;;;;;;12.20;10.90;;;;;;;-5.12;74.30;101093.75;5082342;28;20172;-65
2021/12/26 04:52:42;;;;;;;17.17;10.77;;;;;;;-4.99;74.04;101089.63;5082015;28;20516;-66
2021/12/26 04:55:08;;;;;;;15.73;10.23;;;;;;;-4.82;73.40;101086.72;5082534;28;20453;-66
2021/12/26 04:57:33;;;;;;;11.90;8.90;;;;;;;-4.94;73.53;101080.69;5082241;28;20509;-65
2021/12/26 04:59:59;;;;;;;14.43;10.40;;;;;;;-4.75;73.59;101081.34;5082033;28;20652;-66
2021/12/26 05:02:25;;;;;;;17.17;10.37;;;;;;;-4.69;73.23;101085.16;5082543;28;20164;-65
2021/12/26 05:04:51;;;;;;;14.80;10.87;;;;;;;-4.60;72.87;101075.66;5082049;28;20173;-66
2021/12/26 05:07:17;;;;;;;14.07;10.63;;;;;;;-4.85;73.35;101073.78;5081886;28;20259;-65
2021/12/26 05:09:45;;;;;;;13.67;10.40;;;;;;;-4.84;73.49;101072.13;5082274;28;20438;-65
2021/12/26 05:12:10;;;;;;;19.23;11.27;;;;;;;-4.84;73.09;101074.66;5080969;28;20237;-65
2021/12/26 05:14:35;;;;;;;15.10;10.67;;;;;;;-4.71;73.12;101073.94;5081991;28;20781;-65
2021/12/26 05:17:01;;;;;;;12.77;10.60;;;;;;;-4.50;72.25;101073.03;5082460;28;20494;-65
2021/12/26 05:19:26;;;;;;;15.27;10.73;;;;;;;-4.42;72.64;101077.03;5081482;28;20526;-66
2021/12/26 05:21:51;;;;;;;15.30;11.00;;;;;;;-4.47;72.44;101077.47;5081882;28;20219;-66
2021/12/26 05:24:16;;;;;;;14.47;10.70;;;;;;;-4.27;72.17;101068.78;5082045;28;20173;-65
2021/12/26 05:26:42;;;;;;;15.83;10.63;;;;;;;-4.53;72.30;101072.81;5081572;28;20561;-65
2021/12/26 05:29:07;;;;;;;18.80;11.47;;;;;;;-4.47;73.05;101073.25;5080793;28;20181;-65
2021/12/26 05:31:32;;;;;;;11.37;9.17;;;;;;;-4.48;73.21;101068.97;5082259;28;20180;-66
2021/12/26 05:33:58;;;;;;;13.53;10.20;;;;;;;-4.69;73.87;101062.25;5081285;28;20173;-65
2021/12/26 05:36:23;;;;;;;15.60;10.03;;;;;;;-4.74;73.81;101060.22;5081109;28;20233;-65
2021/12/26 05:38:48;;;;;;;14.17;10.33;;;;;;;-4.78;73.78;101060.75;5082885;28;20176;-66
2021/12/26 05:41:14;;;;;;;14.33;10.33;;;;;;;-4.44;73.06;101068.41;5082612;28;20583;-67
2021/12/26 05:43:40;;;;;;;15.17;10.50;;;;;;;-5.37;74.91;101065.56;5082879;28;20179;-66
2021/12/26 05:46:05;;;;;;;13.57;9.00;;;;;;;-5.13;75.31;101066.59;5082752;28;20488;-66
2021/12/26 05:48:31;;;;;;;14.40;9.80;;;;;;;-4.69;73.02;101060.59;5082723;28;20437;-65
2021/12/26 05:50:56;;;;;;;11.20;8.77;;;;;;;-4.69;73.45;101059.72;5081958;28;20180;-65
2021/12/26 05:53:21;;;;;;;9.40;8.40;;;;;;;-4.79;73.37;101061.56;5080790;28;20275;-66
2021/12/26 05:55:47;;;;;;;12.10;8.90;;;;;;;-4.66;73.78;101065.03;5080378;28;20266;-65
2021/12/26 05:58:12;;;;;;;9.27;7.50;;;;;;;-4.93;74.09;101069.75;5081382;28;20177;-65
2021/12/26 06:00:37;;;;;;;10.87;8.47;;;;;;;-5.01;74.27;101060.66;5080958;28;20586;-65
2021/12/26 06:03:03;;;;;;;12.60;8.23;;;;;;;-5.18;75.39;101060.25;5080825;28;20449;-65
2021/12/26 06:05:28;;;;;;;12.60;8.70;;;;;;;-5.35;75.00;101061.47;5081372;28;20199;-66
2021/12/26 06:07:53;;;;;;;13.83;9.83;;;;;;;-5.44;75.34;101059.09;5080866;28;20554;-66
2021/12/26 06:10:19;;;;;;;13.97;9.47;;;;;;;-5.08;74.38;101052.56;5080831;28;20169;-65
2021/12/26 06:12:44;;;;;;;16.87;9.60;;;;;;;-5.18;73.93;101060.25;5081021;28;20172;-66
2021/12/26 06:15:10;;;;;;;13.63;8.77;;;;;;;-5.24;74.01;101067.38;5080733;28;20201;-66
2021/12/26 06:17:36;;;;;;;9.97;8.93;;;;;;;-5.19;73.57;101055.06;5079862;28;20169;-66
2021/12/26 06:20:05;;;;;;;16.17;10.13;;;;;;;-5.03;73.45;101057.09;5081040;28;20226;-65
2021/12/26 06:22:31;;;;;;;12.03;9.23;;;;;;;-5.03;73.43;101057.09;5080376;28;20455;-66
2021/12/26 06:24:56;;;;;;;14.03;9.20;;;;;;;-4.92;73.45;101058.84;5080463;28;20407;-65
2021/12/26 06:27:21;;;;;;;13.23;8.90;;;;;;;-5.26;73.43;101052.00;5080941;28;20164;-65
2021/12/26 06:29:48;;;;;;;11.93;9.17;;;;;;;-5.59;73.75;101060.41;5080223;28;20180;-66
2021/12/26 06:32:13;;;;;;;12.17;8.40;;;;;;;-5.23;72.99;101059.00;5080283;28;20172;-66
2021/12/26 06:34:38;;;;;;;11.70;8.93;;;;;;;-5.35;73.40;101066.53;5080781;28;20400;-65
2021/12/26 06:37:04;;;;;;;14.37;7.97;;;;;;;-5.26;72.23;101063.84;5080125;28;20246;-66
2021/12/26 06:39:29;;;;;;;13.60;8.20;;;;;;;-5.65;73.54;101067.56;5080178;28;20172;-67
2021/12/26 06:41:54;;;;;;;7.83;6.93;;;;;;;-5.99;73.05;101070.84;5079620;28;20574;-65
2021/12/26 06:44:19;;;;;;;14.57;7.10;;;;;;;-5.54;72.39;101068.41;5080082;28;20173;-66
2021/12/26 06:46:45;;;;;;;8.60;6.50;;;;;;;-5.71;72.80;101069.59;5080149;28;20523;-65
2021/12/26 06:49:10;;;;;;;6.83;5.97;;;;;;;-5.60;72.06;101071.34;5079809;28;20173;-66
2021/12/26 06:51:36;;;;;;;7.87;6.20;;;;;;;-5.64;72.68;101074.38;5079748;28;20243;-65
2021/12/26 06:54:01;;;;;;;7.00;5.70;;;;;;;-6.20;72.02;101071.63;5079766;28;20543;-65
2021/12/26 06:56:26;;;;;;;6.33;5.50;;;;;;;-5.91;72.73;101068.88;5080180;28;20192;-65
2021/12/26 06:58:53;;;;;;;7.93;6.47;;;;;;;-5.84;73.04;101078.75;5079786;28;20173;-66
2021/12/26 07:01:18;;;;;;;8.13;6.30;;;;;;;-5.90;71.99;101079.91;5079796;28;20283;-65
2021/12/26 07:03:43;;;;;;;8.33;6.50;;;;;;;-6.05;73.29;101079.59;5080029;28;20488;-65
2021/12/26 07:06:09;;;;;;;8.77;6.73;;;;;;;-5.69;72.03;101083.31;5078734;28;20208;-66
2021/12/26 07:08:34;;;;;;;10.53;7.10;;;;;;;-5.77;72.04;101085.22;5079524;28;20176;-65
2021/12/26 07:10:59;;;;;;;8.50;6.33;;;;;;;-5.89;72.81;101081.69;5080231;28;20165;-66
2021/12/26 07:13:25;;;;;;;8.60;7.07;;;;;;;-5.72;72.25;101088.13;5079446;28;20456;-66
2021/12/26 07:15:50;;;;;;;10.83;7.00;;;;;;;-5.41;71.66;101084.75;5079528;28;20427;-66
2021/12/26 07:18:16;;;;;;;7.37;6.67;;;;;;;-5.70;71.74;101094.22;5079361;28;20187;-66
2021/12/26 07:20:41;;;;;;;8.30;7.40;;;;;;;-5.98;72.24;101094.56;5079207;28;20295;-65
2021/12/26 07:23:07;;;;;;;6.77;6.17;;;;;;;-5.89;72.42;101092.72;5079396;28;20169;-65
2021/12/26 07:25:32;;;;;;;9.33;7.30;;;;;;;-5.91;72.84;101091.75;5079892;28;20211;-64
2021/12/26 07:27:58;;;;;;;12.30;8.13;;;;;;;-5.75;72.61;101093.84;5079544;28;20165;-66
2021/12/26 07:30:23;;;;;;;8.90;6.97;;;;;;;-6.09;73.12;101091.13;5079085;28;20222;-65
2021/12/26 07:32:48;;;;;;;8.93;7.30;;;;;;;-5.48;71.85;101091.75;5079376;28;20164;-66
2021/12/26 07:35:14;;;;;;;11.00;7.20;;;;;;;-5.39;71.21;101087.41;5079053;28;20554;-65
2021/12/26 07:37:39;;;;;;;9.27;7.30;;;;;;;-5.33;71.02;101089.53;5062129;28;20172;-65
2021/12/26 07:40:06;;;;;;;9.87;7.17;;;;;;;-5.38;71.61;101095.94;5079349;28;20180;-67
2021/12/26 07:42:31;;;;;;;10.20;7.50;;;;;;;-5.33;72.13;101092.06;5078960;28;20165;-65
2021/12/26 07:44:56;;;;;;;11.40;7.70;;;;;;;-5.46;72.40;101098.72;5079247;28;20823;-65
2021/12/26 07:47:22;;;;;;;11.37;8.50;;;;;;;-5.23;71.63;101098.78;5079686;28;20183;-66
2021/12/26 07:49:47;;;;;;;12.43;9.13;;;;;;;-5.56;72.15;101092.78;5078829;28;20165;-66
2021/12/26 07:52:17;;;;;;;12.87;8.90;;;;;;;-5.30;71.81;101088.13;5078488;28;20247;-66
2021/12/26 07:54:44;;;;;;;13.60;8.47;;;;;;;-5.51;71.90;101087.31;5078968;28;20459;-65
2021/12/26 07:57:09;;;;;;;13.17;8.60;;;;;;;-5.64;72.32;101089.63;5078833;28;20415;-65
2021/12/26 07:59:35;;;;;;;8.73;7.40;;;;;;;-5.30;72.09;101092.34;5077877;28;20411;-65
2021/12/26 08:02:01;;;;;;;14.53;9.50;;;;;;;-5.42;71.93;101089.69;5078843;28;20198;-66
2021/12/26 08:04:26;;;;;;;12.30;7.90;;;;;;;-5.41;72.18;101087.28;5078886;28;20192;-66
2021/12/26 08:06:53;;;;;;;11.10;9.07;;;;;;;-5.33;71.81;101082.81;5061193;28;20218;-65
2021/12/26 08:09:18;;;;;;;9.13;7.57;;;;;;;-5.15;72.08;101073.19;5078988;28;20203;-65
2021/12/26 08:11:44;;;;;;;10.63;8.17;;;;;;;-5.23;72.93;101075.91;5077728;28;20473;-66
2021/12/26 08:14:09;;;;;;;8.63;7.73;;;;;;;-5.25;72.31;101081.75;5078616;28;20302;-66
2021/12/26 08:16:34;;;;;;;10.20;7.73;;;;;;;-5.23;71.70;101089.50;5078868;28;20298;-66
2021/12/26 08:19:01;;;;;;;8.17;6.53;;;;;;;-6.01;72.91;101082.50;5078524;28;20185;-66
2021/12/26 08:21:26;;;;;;;12.13;8.60;;;;;;;-5.24;71.88;101082.63;5079768;28;20499;-65
2021/12/26 08:23:51;;;;;;;11.40;8.10;;;;;;;-5.20;71.53;101079.56;5078983;28;20410;-65
2021/12/26 08:26:17;;;;;;;13.47;9.50;;;;;;;-5.27;71.59;101075.66;5078349;28;20161;-66
2021/12/26 08:28:42;;;;;;;10.83;8.70;;;;;;;-5.20;70.48;101074.47;5078588;28;20252;-65
2021/12/26 08:31:09;;;;;;;10.53;9.17;;;;;;;-4.83;70.03;101073.91;5078312;28;20259;-65
2021/12/26 08:33:35;;;;;;;10.63;8.77;;;;;;;-4.82;69.58;101073.13;5078359;28;20160;-65
2021/12/26 08:36:01;;;;;;;18.20;9.80;;;;;;;-4.41;69.09;101080.47;5077988;28;20403;-66
2021/12/26 08:38:26;;;;;;;12.37;9.23;;;;;;;-4.26;68.19;101071.44;5078915;28;20808;-66
2021/12/26 08:40:54;;;;;;;11.90;9.17;;;;;;;-1.78;61.10;101061.31;5078505;28;20289;-66
2021/12/26 08:43:19;;;;;;;14.23;10.10;;;;;;;0.15;55.93;101047.31;5078557;28;20169;-67
2021/12/26 08:45:45;;;;;;;13.17;8.40;;;;;;;0.78;52.37;101054.16;5078766;28;20457;-66
2021/12/26 08:48:10;;;;;;;11.70;8.70;;;;;;;0.70;50.54;101042.59;5078051;28;20251;-66
2021/12/26 08:50:36;;;;;;;12.93;9.10;;;;;;;-0.31;52.74;101048.91;5078189;28;20223;-66
2021/12/26 08:53:03;;;;;;;9.63;7.70;;;;;;;0.36;50.74;101043.31;5078091;28;20264;-66
2021/12/26 08:55:28;;;;;;;9.77;7.87;;;;;;;1.90;48.42;101046.25;5077947;28;20191;-66
2021/12/26 08:57:54;;;;;;;8.83;7.93;;;;;;;1.04;48.17;101047.84;5078308;28;20403;-66
2021/12/26 09:00:21;;;;;;;9.60;7.87;;;;;;;0.90;48.45;101044.56;5077035;28;20270;-67
2021/12/26 09:02:47;;;;;;;9.93;8.93;;;;;;;0.95;48.25;101044.81;5077648;28;20760;-66
2021/12/26 09:05:12;;;;;;;8.70;7.80;;;;;;;2.06;46.75;101042.75;5078091;28;20443;-66
2021/12/26 09:07:38;;;;;;;9.63;8.20;;;;;;;2.44;45.34;101036.00;5077816;28;20169;-67
2021/12/26 09:10:05;;;;;;;11.93;8.40;;;;;;;2.44;45.34;101036.00;5077879;28;20444;-66
2021/12/26 09:12:30;;;;;;;9.53;8.50;;;;;;;2.76;44.38;101049.50;5077846;28;20502;-66
2021/12/26 09:14:56;;;;;;;10.53;9.33;;;;;;;3.11;44.69;101052.81;5076962;28;20454;-66
2021/12/26 09:17:21;;;;;;;9.20;8.30;;;;;;;3.06;44.95;101055.97;5077569;28;20196;-67
2021/12/26 09:19:46;;;;;;;13.90;9.47;;;;;;;2.52;45.73;101057.84;5078153;28;20201;-66
2021/12/26 09:22:15;;;;;;;11.50;8.60;;;;;;;3.25;43.27;101066.31;5077516;28;20200;-66
2021/12/26 09:24:41;;;;;;;8.50;7.60;;;;;;;3.98;43.44;101057.38;5076999;28;20173;-66
2021/12/26 09:27:06;;;;;;;10.80;8.30;;;;;;;3.57;43.50;101063.38;5077572;28;20380;-66
2021/12/26 09:29:32;;;;;;;11.47;8.77;;;;;;;3.55;42.56;101055.56;5081011;28;20386;-66
2021/12/26 09:31:57;;;;;;;8.67;7.77;;;;;;;1.70;44.98;101067.53;5081074;28;20184;-66
2021/12/26 09:34:24;;;;;;;9.97;7.80;;;;;;;3.03;44.52;101064.44;5082041;28;20169;-66
2021/12/26 09:36:49;;;;;;;8.27;7.47;;;;;;;0.92;47.08;101078.91;5081077;28;20176;-66
2021/12/26 09:39:15;;;;;;;8.90;8.00;;;;;;;2.34;44.23;101055.28;5081100;28;20397;-66
2021/12/26 09:41:40;;;;;;;8.43;7.63;;;;;;;2.34;44.65;101052.69;5081346;28;20216;-66
2021/12/26 09:44:06;;;;;;;8.37;7.57;;;;;;;1.43;47.19;101061.03;5080870;28;20161;-66
2021/12/26 09:46:33;;;;;;;9.73;7.90;;;;;;;2.42;45.16;101053.06;5080916;28;20165;-66
2021/12/26 09:48:58;;;;;;;9.30;7.73;;;;;;;3.09;43.19;101051.84;5081947;28;20404;-66
2021/12/26 09:51:24;;;;;;;7.70;6.90;;;;;;;2.59;43.96;101061.56;5081074;28;20491;-67
2021/12/26 09:53:49;;;;;;;8.37;7.50;;;;;;;2.91;42.51;101053.56;5081433;28;20188;-65
2021/12/26 09:56:15;;;;;;;9.00;7.60;;;;;;;2.18;44.05;101061.34;5081337;28;20245;-66
2021/12/26 09:58:55;;;;;;;8.00;7.30;;;;;;;2.89;41.50;101066.38;5080195;28;20168;-67
2021/12/26 10:01:37;;;;;;;6.90;6.23;;;;;;;1.66;42.23;101057.09;5079961;28;20204;-68
2021/12/26 10:04:19;;;;;;;7.40;6.50;;;;;;;2.39;43.23;101049.47;5082865;28;20418;-66
2021/12/26 10:06:46;;;;;;;7.13;6.43;;;;;;;2.57;39.85;101052.00;5082184;28;20401;-66
2021/12/26 10:09:11;;;;;;;8.73;7.87;;;;;;;2.13;42.73;101054.22;5081053;28;20793;-66
2021/12/26 10:11:45;;;;;;;8.17;7.13;;;;;;;3.28;41.02;101037.22;5080579;28;20389;-66
2021/12/26 10:14:14;;;;;;;9.17;6.60;;;;;;;3.20;41.23;101031.72;5079757;28;20596;-67
2021/12/26 10:16:42;;;;;;;7.63;6.60;;;;;;;2.91;40.46;101027.81;5080743;28;20407;-67
2021/12/26 10:19:08;;;;;;;7.77;6.70;;;;;;;1.33;43.12;101031.41;5080329;28;20418;-66
2021/12/26 10:21:57;;;;;;;8.00;6.40;;;;;;;1.18;43.73;101025.50;5080399;28;20465;-66
2021/12/26 10:24:25;;;;;;;7.97;6.30;;;;;;;0.19;45.02;101038.13;5079926;28;20165;-65
2021/12/26 10:26:58;;;;;;;10.17;6.00;;;;;;;2.06;42.16;101036.72;5080446;28;20390;-66
2021/12/26 10:29:26;;;;;;;6.77;6.17;;;;;;;2.82;40.54;101020.56;5080383;28;20466;-66
2021/12/26 10:32:01;;;;;;;7.00;6.30;;;;;;;3.29;38.77;101018.34;5080061;28;20404;-66
2021/12/26 10:34:32;;;;;;;6.67;6.07;;;;;;;3.06;37.92;101018.22;5080027;28;20415;-67
2021/12/26 10:36:59;;;;;;;6.33;5.70;;;;;;;3.16;36.86;101009.22;5080101;28;20469;-66
2021/12/26 10:39:28;;;;;;;6.77;6.17;;;;;;;2.29;37.35;101012.13;5079078;28;20779;-68
2021/12/26 10:41:56;;;;;;;6.73;6.03;;;;;;;1.77;38.19;101008.78;5079211;28;20458;-66
2021/12/26 10:44:26;;;;;;;7.40;6.70;;;;;;;2.89;37.15;101007.16;5079444;28;20777;-66
2021/12/26 10:46:55;;;;;;;6.60;6.00;;;;;;;3.34;36.68;100998.81;5080594;28;20386;-66
2021/12/26 10:49:25;;;;;;;7.17;6.40;;;;;;;3.39;36.48;100996.44;5080025;28;20382;-66
2021/12/26 10:51:50;;;;;;;6.27;5.73;;;;;;;3.20;36.76;100998.22;5079863;28;20718;-66
2021/12/26 10:54:20;;;;;;;6.90;6.17;;;;;;;0.89;40.30;101004.28;5079933;28;20411;-66
2021/12/26 10:57:04;;;;;;;6.60;6.00;;;;;;;1.70;39.97;101000.69;5079850;28;20173;-65
2021/12/26 10:59:29;;;;;;;6.70;6.00;;;;;;;1.73;39.61;100995.69;5079788;28;20703;-65
2021/12/26 11:01:56;;;;;;;5.73;5.13;;;;;;;1.03;41.08;100992.19;5079464;28;20450;-66
2021/12/26 11:04:23;;;;;;;6.10;5.57;;;;;;;2.64;37.88;100985.47;5079696;28;20165;-66
2021/12/26 11:07:10;;;;;;;7.80;6.20;;;;;;;3.43;35.79;100978.59;5079917;28;20404;-66
2021/12/26 11:09:37;;;;;;;6.13;5.53;;;;;;;3.03;35.97;100980.34;5079381;28;20412;-67
2021/12/26 11:12:08;;;;;;;6.53;5.83;;;;;;;1.78;36.76;100981.38;5079370;28;20423;-67
2021/12/26 11:14:59;;;;;;;6.50;5.90;;;;;;;0.94;37.58;100992.59;5078546;28;20177;-66
2021/12/26 11:17:36;;;;;;;7.83;6.03;;;;;;;1.04;38.28;100990.50;5078490;28;20398;-67
2021/12/26 11:20:04;;;;;;;6.53;5.83;;;;;;;2.08;37.51;100978.53;5079175;28;20509;-65
2021/12/26 11:22:29;;;;;;;6.77;6.10;;;;;;;1.74;37.59;100977.78;5078415;28;20419;-66
2021/12/26 11:24:57;;;;;;;8.40;7.60;;;;;;;2.10;37.74;100977.81;5079330;28;20423;-66
2021/12/26 11:27:22;;;;;;;7.43;6.60;;;;;;;3.42;35.61;100965.66;5079605;28;20638;-66